Terminal Aerodrome Forecast
Issued by NWS

Home | Current Version | Previous Version | Text Only | Print | Product List | Glossary Off
Versions: 1 2 3 4 5 6 7 8 9 10 11 12 13 14 15 16 17 18 19 20 21 22 23

000
FTUS43 KTOP 221720
TAFFOE
TAF
KFOE 221720Z 2218/2318 26015KT 5SM -RA BR OVC006
      TEMPO 2218/2219 1SM -RASN OVC004
     FM221900 29020G28KT 4SM -RASN SCT007 OVC011
     FM222200 31018G28KT P6SM -RASN OVC020
     FM230300 31018G29KT P6SM OVC025
     FM231300 31011KT P6SM SCT025=

USA.gov is the U.S. government's official web portal to all federal, state and local government web resources and services.